Terminal Aerodrome Forecast
Issued by NWS

Home | Current Version | Previous Version | Text Only | Print | Product List | Glossary On
Versions: 1 2 3 4 5 6 7 8 9 10 11 12 13 14 15 16 17 18 19 20 21 22 23 24 25 26
000
FTUS41 KRLX 152330
TAFCKB
TAF
KCKB 152330Z 1600/1624 24012G19KT P6SM OVC050
     FM160200 25010KT P6SM OVC025
     FM160500 26010KT P6SM OVC035
     FM161200 22007KT P6SM BKN060
     FM161700 23010KT P6SM SCT250=

USA.gov is the U.S. government's official web portal to all federal, state and local government web resources and services.